Salisbury, United Kingdom
Current Conditions -  °F | °C
As of 1:14 PM on Thursday 27 Nov 2014 (Local Time) from EGDM Reporting Station
Haze Haze  
Wind Chill: 45°   Ceiling: 5000
Heat Index: 48°   Visibility: 4mi
Dew Point: 46°   Wind: 8mph
Humidity: 93%   Direction: 120°ESE
Pressure: 29.56"   Gusts: NA
Location:  51.07°N, 1.8°W
Report Text: EGDM 271314Z 12007KT 6000 HZ SCT004 BKN050 09/08 Q1001 YLO2 TEMPO FEW004 WHT
Loading
Personal Weather Stations






























Interactive Weather Map New forecast layout! Learn more

10-Day Weather Forecast

Advertisements
Track Severe Weather on mobile